createdAt,value
2023-05-04T00:00:08.896Z,84.05
2023-05-04T00:01:08.859Z,84.05
2023-05-04T00:02:08.826Z,83.73
2023-05-04T00:03:08.925Z,83.84
2023-05-04T00:04:08.979Z,84.05
2023-05-04T00:05:08.817Z,83.94
2023-05-04T00:06:08.823Z,84.25
2023-05-04T00:07:08.796Z,84.15
2023-05-04T00:08:08.767Z,84.25
2023-05-04T00:09:08.773Z,84.87
2023-05-04T00:10:08.851Z,84.66
2023-05-04T00:11:08.745Z,83.53
2023-05-04T00:12:08.758Z,83.63
2023-05-04T00:13:08.771Z,84.66
2023-05-04T00:14:08.719Z,84.87
2023-05-04T00:15:08.722Z,85.49
2023-05-04T00:16:11.018Z,85.84
2023-05-04T00:17:09.687Z,85.80
2023-05-04T00:18:08.729Z,85.49
2023-05-04T00:19:09.145Z,85.39
2023-05-04T00:20:08.699Z,86.63
2023-05-04T00:21:08.637Z,86.01
2023-05-04T00:22:09.661Z,85.39
2023-05-04T00:23:08.629Z,85.80
2023-05-04T00:24:08.605Z,85.28
2023-05-04T00:25:08.607Z,84.87
2023-05-04T00:26:08.603Z,84.87
2023-05-04T00:27:08.590Z,85.39
2023-05-04T00:28:08.578Z,85.49
2023-05-04T00:29:08.553Z,85.80
2023-05-04T00:30:08.567Z,86.25
2023-05-04T00:31:08.588Z,86.01
2023-05-04T00:32:08.499Z,85.49
2023-05-04T00:33:08.617Z,84.56
2023-05-04T00:34:08.526Z,84.45
2023-05-04T00:35:08.487Z,84.56
2023-05-04T00:36:08.512Z,84.56
2023-05-04T00:37:08.482Z,84.60
2023-05-04T00:38:08.447Z,85.22
2023-05-04T00:39:08.440Z,85.22
2023-05-04T00:40:08.470Z,86.25
2023-05-04T00:41:08.453Z,87.49
2023-05-04T00:42:08.411Z,87.29
2023-05-04T00:43:08.424Z,87.39
2023-05-04T00:44:08.377Z,87.29
2023-05-04T00:45:08.386Z,86.46
2023-05-04T00:46:08.404Z,84.50
2023-05-04T00:47:08.410Z,84.81
2023-05-04T00:48:08.389Z,85.22
2023-05-04T00:49:08.365Z,86.81
2023-05-04T00:50:08.358Z,87.02
2023-05-04T00:51:08.301Z,86.60
2023-05-04T00:52:08.348Z,86.71
2023-05-04T00:53:08.311Z,86.50
2023-05-04T00:54:08.266Z,86.65
2023-05-04T00:55:09.320Z,85.92
2023-05-04T00:56:08.284Z,86.50
2023-05-04T00:57:08.267Z,86.13
2023-05-04T00:58:08.234Z,86.27
2023-05-04T00:59:08.229Z,88.09
2023-05-04T01:00:08.250Z,88.20
2023-05-04T01:01:08.324Z,87.16
2023-05-04T01:02:08.217Z,86.75
2023-05-04T01:03:08.428Z,86.23
2023-05-04T01:04:08.388Z,86.75
2023-05-04T01:05:08.174Z,87.88
2023-05-04T01:06:08.146Z,88.03
2023-05-04T01:07:08.193Z,87.57
2023-05-04T01:08:08.132Z,86.89
2023-05-04T01:09:08.148Z,87.93
2023-05-04T01:10:08.136Z,87.66
2023-05-04T01:11:08.115Z,87.97
2023-05-04T01:12:08.093Z,87.45
2023-05-04T01:13:08.156Z,87.55
2023-05-04T01:14:08.095Z,87.66
2023-05-04T01:15:08.045Z,87.66
2023-05-04T01:16:08.091Z,87.04
2023-05-04T01:17:08.117Z,86.76
2023-05-04T01:18:08.130Z,87.59
2023-05-04T01:19:09.020Z,88.21
2023-05-04T01:20:08.033Z,88.53
2023-05-04T01:21:07.993Z,89.67
2023-05-04T01:22:07.986Z,89.15
2023-05-04T01:23:08.006Z,89.25
2023-05-04T01:24:07.944Z,89.04
2023-05-04T01:25:07.953Z,89.46
2023-05-04T01:26:07.951Z,90.60
2023-05-04T01:27:07.931Z,91.64
2023-05-04T01:28:07.926Z,91.02
2023-05-04T01:29:07.913Z,90.91
2023-05-04T01:30:07.917Z,90.81
2023-05-04T01:31:07.937Z,92.05
2023-05-04T01:32:07.975Z,91.85
2023-05-04T01:33:07.912Z,91.33
2023-05-04T01:34:07.866Z,91.27
2023-05-04T01:35:07.833Z,91.78
2023-05-04T01:36:07.813Z,92.10
2023-05-04T01:37:07.871Z,92.30
2023-05-04T01:38:07.818Z,92.51
2023-05-04T01:39:07.792Z,91.99
2023-05-04T01:40:07.846Z,91.72
2023-05-04T01:41:07.773Z,91.93
2023-05-04T01:42:07.760Z,92.10
2023-05-04T01:43:07.774Z,91.31
2023-05-04T01:44:07.764Z,92.14
2023-05-04T01:45:07.740Z,92.24
2023-05-04T01:46:07.748Z,91.83
2023-05-04T01:47:07.734Z,92.24
2023-05-04T01:48:07.727Z,92.03
2023-05-04T01:49:07.699Z,92.66
2023-05-04T01:50:07.689Z,93.13
2023-05-04T01:51:07.686Z,92.55
2023-05-04T01:52:07.629Z,92.14
2023-05-04T01:53:07.656Z,92.14
2023-05-04T01:54:07.663Z,92.03
2023-05-04T01:55:07.621Z,91.41
2023-05-04T01:56:07.641Z,90.69
2023-05-04T01:57:07.589Z,91.62
2023-05-04T01:58:07.575Z,91.76
2023-05-04T01:59:07.587Z,91.66
2023-05-04T02:00:07.765Z,91.86
2023-05-04T02:01:07.550Z,91.35
2023-05-04T02:02:07.561Z,91.39
2023-05-04T02:03:07.673Z,91.14
2023-05-04T02:04:07.618Z,91.97
2023-05-04T02:05:07.512Z,92.07
2023-05-04T02:06:07.479Z,91.08
2023-05-04T02:07:07.481Z,92.11
2023-05-04T02:08:07.515Z,92.07
2023-05-04T02:09:07.502Z,92.01
2023-05-04T02:10:07.435Z,92.32
2023-05-04T02:11:07.495Z,92.69
2023-05-04T02:12:07.418Z,93.22
2023-05-04T02:13:07.480Z,92.43
2023-05-04T02:14:07.453Z,92.59
2023-05-04T02:15:07.413Z,92.69
2023-05-04T02:16:07.404Z,92.90
2023-05-04T02:17:07.393Z,92.28
2023-05-04T02:18:07.418Z,92.76
2023-05-04T02:19:07.338Z,93.12
2023-05-04T02:20:07.597Z,94.05
2023-05-04T02:21:07.329Z,93.90
2023-05-04T02:22:07.316Z,93.70
2023-05-04T02:23:07.340Z,93.18
2023-05-04T02:24:07.335Z,92.86
2023-05-04T02:25:07.310Z,92.66
2023-05-04T02:26:07.281Z,92.03
2023-05-04T02:27:07.271Z,92.45
2023-05-04T02:28:07.239Z,93.18
2023-05-04T02:29:07.246Z,93.07
2023-05-04T02:30:07.410Z,92.97
2023-05-04T02:31:07.288Z,92.97
2023-05-04T02:32:07.225Z,93.02
2023-05-04T02:33:07.283Z,92.76
2023-05-04T02:34:07.198Z,92.35
2023-05-04T02:35:07.179Z,91.66
2023-05-04T02:36:07.210Z,92.76
2023-05-04T02:37:07.553Z,94.11
2023-05-04T02:38:08.133Z,93.84
2023-05-04T02:39:07.156Z,94.26
2023-05-04T02:40:07.508Z,94.73
2023-05-04T02:41:07.124Z,94.73
2023-05-04T02:42:07.094Z,94.37
2023-05-04T02:43:07.109Z,94.17
2023-05-04T02:44:07.081Z,93.44
2023-05-04T02:45:07.087Z,93.44
2023-05-04T02:46:07.126Z,92.93
2023-05-04T02:47:07.045Z,92.82
2023-05-04T02:48:07.084Z,92.51
2023-05-04T02:49:07.025Z,92.93
2023-05-04T02:50:07.228Z,92.41
2023-05-04T02:51:07.011Z,92.51
2023-05-04T02:52:07.009Z,93.13
2023-05-04T02:53:06.997Z,93.28
2023-05-04T02:54:06.973Z,93.23
2023-05-04T02:55:06.974Z,93.65
2023-05-04T02:56:07.006Z,93.13
2023-05-04T02:57:06.975Z,93.33
2023-05-04T02:58:06.926Z,93.33
2023-05-04T02:59:06.939Z,93.02
2023-05-04T03:00:07.221Z,92.82
2023-05-04T03:01:06.911Z,92.97
2023-05-04T03:02:06.899Z,93.13
2023-05-04T03:03:06.952Z,92.66
2023-05-04T03:04:06.867Z,92.72
2023-05-04T03:05:06.883Z,91.47
2023-05-04T03:06:06.869Z,92.41
2023-05-04T03:07:06.848Z,92.51
2023-05-04T03:08:06.945Z,92.76
2023-05-04T03:09:06.815Z,92.35
2023-05-04T03:10:07.006Z,93.18
2023-05-04T03:11:06.805Z,93.59
2023-05-04T03:12:06.773Z,92.76
2023-05-04T03:13:06.786Z,92.35
2023-05-04T03:14:06.800Z,93.07
2023-05-04T03:15:06.737Z,92.97
2023-05-04T03:16:06.789Z,92.66
2023-05-04T03:17:06.755Z,92.03
2023-05-04T03:18:06.760Z,92.24
2023-05-04T03:19:06.739Z,92.24
2023-05-04T03:20:07.036Z,92.66
2023-05-04T03:21:06.704Z,92.97
2023-05-04T03:22:06.664Z,93.02
2023-05-04T03:23:06.695Z,92.86
2023-05-04T03:24:06.664Z,92.45
2023-05-04T03:25:06.680Z,92.59
2023-05-04T03:26:06.671Z,92.55
2023-05-04T03:27:06.642Z,92.38
2023-05-04T03:28:06.607Z,92.80
2023-05-04T03:29:06.641Z,92.45
2023-05-04T03:30:06.808Z,92.80
2023-05-04T03:31:06.593Z,93.01
2023-05-04T03:32:06.774Z,92.59
2023-05-04T03:33:06.609Z,92.49
2023-05-04T03:34:06.536Z,92.69
2023-05-04T03:35:10.379Z,91.91
2023-05-04T03:36:06.533Z,92.90
2023-05-04T03:37:06.518Z,93.43
2023-05-04T03:38:06.552Z,94.36
2023-05-04T03:39:06.476Z,94.36
2023-05-04T03:40:06.783Z,94.63
2023-05-04T03:41:06.514Z,94.67
2023-05-04T03:42:06.447Z,95.15
2023-05-04T03:43:06.444Z,94.73
2023-05-04T03:44:06.456Z,94.53
2023-05-04T03:45:06.445Z,94.98
2023-05-04T03:46:06.441Z,94.98
2023-05-04T03:47:06.436Z,94.46
2023-05-04T03:48:06.386Z,94.36
2023-05-04T03:49:06.385Z,94.57
2023-05-04T03:50:06.797Z,94.05
2023-05-04T03:51:06.468Z,94.36
2023-05-04T03:52:06.338Z,94.11
2023-05-04T03:53:06.341Z,94.05
2023-05-04T03:54:06.353Z,93.80
2023-05-04T03:55:06.313Z,93.49
2023-05-04T03:56:06.321Z,93.43
2023-05-04T03:57:06.301Z,92.59
2023-05-04T03:58:06.273Z,92.59
2023-05-04T03:59:06.291Z,92.90
2023-05-04T04:00:06.593Z,92.90
2023-05-04T04:01:06.260Z,93.01
2023-05-04T04:02:06.269Z,93.12
2023-05-04T04:03:06.319Z,93.12
2023-05-04T04:04:06.286Z,93.49
2023-05-04T04:05:06.230Z,94.11
2023-05-04T04:06:06.232Z,94.53
2023-05-04T04:07:06.200Z,95.00
2023-05-04T04:08:06.188Z,95.00
2023-05-04T04:09:06.158Z,94.37
2023-05-04T04:10:06.384Z,94.54
2023-05-04T04:11:06.167Z,93.98
2023-05-04T04:12:06.130Z,93.60
2023-05-04T04:13:06.181Z,93.15
2023-05-04T04:14:06.157Z,92.94
2023-05-04T04:15:06.095Z,92.74
2023-05-04T04:16:06.133Z,92.74
2023-05-04T04:17:06.115Z,92.57
2023-05-04T04:18:06.133Z,93.04
2023-05-04T04:19:06.049Z,93.15
2023-05-04T04:20:06.327Z,93.25
2023-05-04T04:21:06.061Z,93.25
2023-05-04T04:22:06.034Z,92.94
2023-05-04T04:23:06.020Z,92.43
2023-05-04T04:24:06.055Z,92.59
2023-05-04T04:25:06.001Z,92.49
2023-05-04T04:26:05.968Z,91.86
2023-05-04T04:27:06.011Z,91.93
2023-05-04T04:28:05.940Z,91.93
2023-05-04T04:29:05.938Z,91.72
2023-05-04T04:30:06.183Z,91.61
2023-05-04T04:31:05.965Z,91.93
2023-05-04T04:32:05.901Z,91.05
2023-05-04T04:33:05.973Z,91.16
2023-05-04T04:34:05.934Z,90.74
2023-05-04T04:35:05.880Z,91.05
2023-05-04T04:36:05.903Z,90.23
2023-05-04T04:37:05.871Z,90.02
2023-05-04T04:38:05.836Z,89.71
2023-05-04T04:39:05.879Z,89.87
2023-05-04T04:40:06.025Z,89.56
2023-05-04T04:41:05.821Z,89.77
2023-05-04T04:42:05.837Z,89.46
2023-05-04T04:43:05.855Z,89.25
2023-05-04T04:44:05.791Z,89.22
2023-05-04T04:45:05.800Z,89.25
2023-05-04T04:46:05.810Z,89.11
2023-05-04T04:47:05.866Z,89.32
2023-05-04T04:48:05.831Z,89.42
2023-05-04T04:49:05.742Z,88.70
2023-05-04T04:50:06.137Z,88.24
2023-05-04T04:51:05.712Z,88.49
2023-05-04T04:52:05.747Z,87.93
2023-05-04T04:53:05.698Z,88.04
2023-05-04T04:54:05.677Z,87.93
2023-05-04T04:55:05.674Z,87.99
2023-05-04T04:56:05.699Z,87.89
2023-05-04T04:57:05.671Z,87.89
2023-05-04T04:58:05.649Z,87.13
2023-05-04T04:59:05.661Z,87.54
2023-05-04T05:00:05.928Z,87.68
2023-05-04T05:01:05.651Z,87.65
2023-05-04T05:02:05.616Z,87.13
2023-05-04T05:03:05.680Z,87.23
2023-05-04T05:04:05.588Z,86.57
2023-05-04T05:05:05.680Z,86.36
2023-05-04T05:06:05.580Z,86.68
2023-05-04T05:07:05.545Z,86.36
2023-05-04T05:08:05.568Z,86.26
2023-05-04T05:09:05.561Z,86.94
2023-05-04T05:10:05.904Z,86.32
2023-05-04T05:11:05.518Z,85.91
2023-05-04T05:12:05.519Z,85.39
2023-05-04T05:13:05.598Z,85.36
2023-05-04T05:14:05.452Z,85.46
2023-05-04T05:15:05.491Z,85.52
2023-05-04T05:16:05.824Z,86.24
2023-05-04T05:17:05.628Z,85.07
2023-05-04T05:18:05.426Z,84.97
2023-05-04T05:19:05.447Z,84.77
2023-05-04T05:20:05.588Z,84.97
2023-05-04T05:21:05.417Z,84.83
2023-05-04T05:22:05.392Z,83.70
2023-05-04T05:23:05.442Z,82.73
2023-05-04T05:24:05.362Z,82.53
2023-05-04T05:25:05.387Z,82.42
2023-05-04T05:26:05.382Z,81.91
2023-05-04T05:27:05.360Z,79.64
2023-05-04T05:28:05.344Z,80.43
2023-05-04T05:29:05.323Z,80.53
2023-05-04T05:30:05.777Z,80.33
2023-05-04T05:31:05.365Z,79.88
2023-05-04T05:32:05.317Z,80.39
2023-05-04T05:33:05.321Z,78.85
2023-05-04T05:34:05.271Z,78.40
2023-05-04T05:35:05.267Z,77.68
2023-05-04T05:36:05.271Z,78.30
2023-05-04T05:37:05.266Z,78.27
2023-05-04T05:38:05.221Z,78.88
2023-05-04T05:39:05.227Z,78.78
2023-05-04T05:40:05.643Z,78.27
2023-05-04T05:41:05.197Z,77.92
2023-05-04T05:42:05.215Z,77.81
2023-05-04T05:43:05.188Z,77.51
2023-05-04T05:44:05.152Z,77.30
2023-05-04T05:45:05.173Z,76.65
2023-05-04T05:46:05.175Z,75.69
2023-05-04T05:47:05.130Z,74.26
2023-05-04T05:48:05.169Z,74.46
2023-05-04T05:49:05.126Z,75.15
2023-05-04T05:50:05.314Z,74.53
2023-05-04T05:51:05.099Z,72.89
2023-05-04T05:52:05.082Z,72.86
2023-05-04T05:53:05.071Z,72.75
2023-05-04T05:54:05.068Z,72.75
2023-05-04T05:55:05.037Z,74.39
2023-05-04T05:56:05.083Z,74.97
2023-05-04T05:57:05.020Z,75.48
2023-05-04T05:58:04.998Z,74.87
2023-05-04T05:59:05.018Z,74.63
2023-05-04T06:00:05.246Z,74.46
2023-05-04T06:01:04.988Z,72.38
2023-05-04T06:02:04.965Z,71.08
2023-05-04T06:03:05.016Z,70.64
2023-05-04T06:04:05.121Z,70.23
2023-05-04T06:05:05.010Z,69.92
2023-05-04T06:06:04.941Z,69.27
2023-05-04T06:07:04.939Z,70.09
2023-05-04T06:08:04.914Z,69.96
2023-05-04T06:09:04.883Z,69.24
2023-05-04T06:10:05.216Z,68.52
2023-05-04T06:11:04.860Z,67.07
2023-05-04T06:12:04.900Z,67.07
2023-05-04T06:13:04.888Z,66.86
2023-05-04T06:14:04.813Z,67.44
2023-05-04T06:15:04.822Z,67.34
2023-05-04T06:16:04.865Z,67.44
2023-05-04T06:17:04.820Z,66.49
2023-05-04T06:18:04.823Z,65.88
2023-05-04T06:19:05.773Z,65.57
2023-05-04T06:20:05.009Z,65.67
2023-05-04T06:21:05.764Z,65.67
2023-05-04T06:22:04.713Z,65.98
2023-05-04T06:23:04.737Z,65.77
2023-05-04T06:24:04.724Z,66.25
2023-05-04T06:25:07.704Z,65.98
2023-05-04T06:26:05.701Z,66.05
2023-05-04T06:27:04.690Z,65.13
2023-05-04T06:28:04.704Z,64.28
2023-05-04T06:29:04.664Z,63.47
2023-05-04T06:30:04.856Z,63.67
2023-05-04T06:31:04.642Z,62.96
2023-05-04T06:32:04.741Z,62.45
2023-05-04T06:33:04.705Z,63.37
2023-05-04T06:34:04.716Z,62.62
2023-05-04T06:35:04.560Z,62.59
2023-05-04T06:36:04.611Z,62.21
2023-05-04T06:37:04.585Z,62.62
2023-05-04T06:38:04.589Z,62.70
2023-05-04T06:39:04.536Z,61.88
2023-05-04T06:40:04.548Z,61.47
2023-05-04T06:41:04.518Z,60.83
2023-05-04T06:42:04.504Z,60.73
2023-05-04T06:43:04.504Z,60.63
2023-05-04T06:44:04.464Z,59.89
2023-05-04T06:45:04.494Z,60.76
2023-05-04T06:46:04.497Z,61.88
2023-05-04T06:47:04.437Z,60.45
2023-05-04T06:48:05.480Z,60.63
2023-05-04T06:49:04.411Z,60.96
2023-05-04T06:50:04.616Z,61.78
2023-05-04T06:51:04.367Z,61.78
2023-05-04T06:52:04.431Z,61.27
2023-05-04T06:53:04.402Z,61.68
2023-05-04T06:54:04.373Z,60.83
2023-05-04T06:55:04.351Z,60.12
2023-05-04T06:56:04.386Z,61.19
2023-05-04T06:57:04.371Z,62.21
2023-05-04T06:58:04.326Z,63.00
2023-05-04T06:59:04.323Z,61.98
2023-05-04T07:00:04.504Z,61.85
2023-05-04T07:01:36.922Z,60.14
2023-05-04T07:02:04.334Z,59.53
2023-05-04T07:03:04.324Z,60.14
2023-05-04T07:04:04.398Z,60.02
2023-05-04T07:05:04.257Z,59.71
2023-05-04T07:06:04.223Z,60.02
2023-05-04T07:07:04.253Z,59.48
2023-05-04T07:08:04.218Z,59.45
2023-05-04T07:09:04.229Z,59.35
2023-05-04T07:10:04.370Z,59.12
2023-05-04T07:11:04.172Z,58.61
2023-05-04T07:12:04.182Z,58.99
2023-05-04T07:13:04.194Z,58.38
2023-05-04T07:14:04.176Z,58.58
2023-05-04T07:15:04.132Z,58.07
2023-05-04T07:16:04.184Z,58.28
2023-05-04T07:17:04.124Z,58.07
2023-05-04T07:18:04.171Z,58.38
2023-05-04T07:19:04.096Z,58.56
2023-05-04T07:20:04.288Z,58.25
2023-05-04T07:21:22.014Z,58.28
2023-05-04T07:22:06.074Z,58.25
2023-05-04T07:23:04.025Z,58.04
2023-05-04T07:24:04.133Z,58.04
2023-05-04T07:25:04.037Z,58.25
2023-05-04T07:26:03.997Z,58.22
2023-05-04T07:27:04.010Z,58.33
2023-05-04T07:28:04.011Z,58.22
2023-05-04T07:29:03.976Z,58.42
2023-05-04T07:30:04.240Z,58.04
2023-05-04T07:31:03.958Z,57.92
2023-05-04T07:32:03.966Z,57.61
2023-05-04T07:33:03.955Z,57.21
2023-05-04T07:34:03.922Z,57.61
2023-05-04T07:35:03.939Z,58.09
2023-05-04T07:36:03.894Z,57.99
2023-05-04T07:37:03.876Z,57.99
2023-05-04T07:38:03.896Z,58.09
2023-05-04T07:39:03.849Z,58.06
2023-05-04T07:40:04.142Z,57.59
2023-05-04T07:41:03.848Z,57.76
2023-05-04T07:42:03.832Z,57.18
2023-05-04T07:43:03.948Z,57.48
2023-05-04T07:44:03.810Z,57.99
2023-05-04T07:45:03.830Z,57.76
2023-05-04T07:46:03.827Z,58.47
2023-05-04T07:47:03.768Z,58.47
2023-05-04T07:48:03.804Z,57.84
2023-05-04T07:49:03.741Z,56.34
2023-05-04T07:50:04.258Z,56.95
2023-05-04T07:51:03.737Z,56.62
2023-05-04T07:52:03.726Z,57.20
2023-05-04T07:53:03.712Z,56.09
2023-05-04T07:54:03.714Z,56.92
2023-05-04T07:55:03.699Z,57.40
2023-05-04T07:56:03.676Z,56.41
2023-05-04T07:57:03.684Z,55.98
2023-05-04T07:58:03.675Z,55.88
2023-05-04T07:59:03.642Z,56.18
2023-05-04T08:00:03.786Z,56.26
2023-05-04T08:01:03.607Z,56.03
2023-05-04T08:02:03.663Z,56.54
2023-05-04T08:03:03.782Z,56.03
2023-05-04T08:04:03.594Z,55.22
2023-05-04T08:05:03.613Z,55.19
2023-05-04T08:06:03.608Z,55.27
2023-05-04T08:07:03.544Z,55.17
2023-05-04T08:08:03.546Z,55.17
2023-05-04T08:09:03.560Z,54.84
2023-05-04T08:10:03.709Z,54.44
2023-05-04T08:11:18.586Z,53.42
2023-05-04T08:12:05.505Z,53.60
2023-05-04T08:13:03.534Z,53.63
2023-05-04T08:14:03.499Z,53.50
2023-05-04T08:15:03.694Z,53.40
2023-05-04T08:16:03.461Z,53.90
2023-05-04T08:17:03.442Z,52.99
2023-05-04T08:18:03.458Z,53.07
2023-05-04T08:19:03.473Z,53.52
2023-05-04T08:20:03.415Z,53.83
2023-05-04T08:21:03.413Z,54.23
2023-05-04T08:22:03.409Z,53.50
2023-05-04T08:23:03.389Z,54.31
2023-05-04T08:24:03.372Z,53.19
2023-05-04T08:25:03.660Z,53.38
2023-05-04T08:26:03.366Z,52.54
2023-05-04T08:27:08.054Z,52.74
2023-05-04T08:28:05.325Z,52.84
2023-05-04T08:29:03.333Z,53.47
2023-05-04T08:30:03.337Z,52.84
2023-05-04T08:31:03.308Z,52.01
2023-05-04T08:32:03.321Z,51.40
2023-05-04T08:33:03.324Z,51.61
2023-05-04T08:34:03.270Z,52.31
2023-05-04T08:35:03.304Z,51.78
2023-05-04T08:36:03.283Z,51.38
2023-05-04T08:37:03.265Z,50.75
2023-05-04T08:38:03.228Z,49.94
2023-05-04T08:39:03.258Z,50.12
2023-05-04T08:40:03.242Z,49.92
2023-05-04T08:41:03.199Z,49.79
2023-05-04T08:42:03.184Z,49.99
2023-05-04T08:43:03.182Z,51.48
2023-05-04T08:44:03.164Z,51.83
2023-05-04T08:45:03.290Z,52.03
2023-05-04T08:46:03.201Z,51.89
2023-05-04T08:47:03.142Z,50.55
2023-05-04T08:48:03.188Z,50.35
2023-05-04T08:49:03.112Z,49.49
2023-05-04T08:50:03.134Z,49.09
2023-05-04T08:51:03.111Z,48.76
2023-05-04T08:52:03.096Z,48.06
2023-05-04T08:53:03.088Z,48.24
2023-05-04T08:54:03.066Z,48.01
2023-05-04T08:55:03.130Z,48.82
2023-05-04T08:56:03.027Z,47.61
2023-05-04T08:57:03.027Z,48.52
2023-05-04T08:58:03.017Z,47.71
2023-05-04T08:59:03.008Z,49.67
2023-05-04T09:00:03.020Z,49.55
2023-05-04T09:01:03.014Z,48.34
2023-05-04T09:02:04.211Z,48.61
2023-05-04T09:03:03.057Z,48.54
2023-05-04T09:04:02.969Z,48.32
2023-05-04T09:05:03.034Z,47.00
2023-05-04T09:06:02.916Z,47.81
2023-05-04T09:07:02.914Z,49.32
2023-05-04T09:08:03.917Z,48.52
2023-05-04T09:09:02.887Z,47.89
2023-05-04T09:10:02.897Z,47.81
2023-05-04T09:11:02.867Z,48.66
2023-05-04T09:12:02.875Z,49.90
2023-05-04T09:13:02.872Z,49.85
2023-05-04T09:14:02.841Z,48.54
2023-05-04T09:15:03.057Z,48.64
2023-05-04T09:16:03.146Z,48.69
2023-05-04T09:17:02.957Z,48.11
2023-05-04T09:18:02.911Z,49.10
2023-05-04T09:19:02.778Z,47.97
2023-05-04T09:20:02.761Z,47.14
2023-05-04T09:21:02.754Z,46.81
2023-05-04T09:22:02.793Z,46.73
2023-05-04T09:23:02.716Z,46.94
2023-05-04T09:24:02.730Z,47.72
2023-05-04T09:25:02.827Z,46.59
2023-05-04T09:26:02.707Z,45.87
2023-05-04T09:27:02.703Z,45.75
2023-05-04T09:28:02.681Z,44.42
2023-05-04T09:29:02.661Z,45.51
2023-05-04T09:30:02.657Z,46.76
2023-05-04T09:31:02.713Z,48.39
2023-05-04T09:32:02.630Z,48.90
2023-05-04T09:33:02.687Z,48.37
2023-05-04T09:34:02.632Z,47.59
2023-05-04T09:35:02.796Z,48.39
2023-05-04T09:36:02.598Z,47.86
2023-05-04T09:37:02.603Z,46.66
2023-05-04T09:38:02.665Z,47.08
2023-05-04T09:39:02.553Z,47.56
2023-05-04T09:40:02.558Z,47.14
2023-05-04T09:41:02.536Z,46.49
2023-05-04T09:42:02.542Z,45.47
2023-05-04T09:43:02.522Z,44.82
2023-05-04T09:44:02.507Z,43.30
2023-05-04T09:45:02.623Z,42.88
2023-05-04T09:46:02.569Z,43.18
2023-05-04T09:47:02.472Z,43.18
2023-05-04T09:48:02.575Z,43.32
2023-05-04T09:49:02.509Z,43.52
2023-05-04T09:50:02.523Z,42.99
2023-05-04T09:51:02.415Z,43.86
2023-05-04T09:52:02.469Z,46.11
2023-05-04T09:53:02.414Z,46.22
2023-05-04T09:54:02.394Z,46.27
2023-05-04T09:55:02.561Z,46.04
2023-05-04T09:56:03.470Z,45.25
2023-05-04T09:57:03.552Z,45.65
2023-05-04T09:58:02.373Z,44.62
2023-05-04T09:59:02.328Z,44.52
2023-05-04T10:00:02.397Z,44.62
2023-05-04T10:01:02.313Z,45.34
2023-05-04T10:02:10.637Z,45.12
2023-05-04T10:03:04.351Z,44.60
2023-05-04T10:04:02.276Z,44.08
2023-05-04T10:05:02.439Z,43.26
2023-05-04T10:06:02.267Z,43.85
2023-05-04T10:07:02.420Z,45.56
2023-05-04T10:08:02.257Z,44.84
2023-05-04T10:09:02.297Z,42.85
2023-05-04T10:10:02.213Z,43.33
2023-05-04T10:11:02.235Z,44.74
2023-05-04T10:12:02.197Z,43.33
2023-05-04T10:13:02.236Z,43.05
2023-05-04T10:14:02.198Z,43.13
2023-05-04T10:15:02.248Z,43.12
2023-05-04T10:16:03.212Z,43.24
2023-05-04T10:17:02.187Z,43.01
2023-05-04T10:18:02.183Z,43.29
2023-05-04T10:19:02.185Z,43.21
2023-05-04T10:20:02.122Z,42.79
2023-05-04T10:21:02.100Z,42.27
2023-05-04T10:22:03.108Z,41.03
2023-05-04T10:23:02.089Z,40.92
2023-05-04T10:24:02.065Z,40.92
2023-05-04T10:25:02.164Z,41.11
2023-05-04T10:26:02.033Z,40.94
2023-05-04T10:27:02.045Z,41.30
2023-05-04T10:28:02.039Z,42.61
2023-05-04T10:29:02.022Z,42.40
2023-05-04T10:30:02.001Z,42.61
2023-05-04T10:31:02.010Z,42.85
2023-05-04T10:32:02.130Z,42.96
2023-05-04T10:33:02.005Z,42.82
2023-05-04T10:34:01.980Z,41.39
2023-05-04T10:35:02.006Z,41.30
2023-05-04T10:36:01.960Z,41.39
2023-05-04T10:37:01.946Z,42.52
2023-05-04T10:38:01.933Z,41.08
2023-05-04T10:39:01.890Z,40.95
2023-05-04T10:40:01.901Z,41.85
2023-05-04T10:41:01.911Z,43.48
2023-05-04T10:42:01.917Z,41.96
2023-05-04T10:43:01.880Z,40.62
2023-05-04T10:44:01.864Z,39.80
2023-05-04T10:45:01.865Z,39.40
2023-05-04T10:46:01.897Z,39.68
2023-05-04T10:47:01.866Z,39.48
2023-05-04T10:48:01.846Z,39.14
2023-05-04T10:49:01.803Z,39.25
2023-05-04T10:50:01.830Z,39.04
2023-05-04T10:51:01.797Z,38.05
2023-05-04T10:52:01.771Z,39.23
2023-05-04T10:53:01.774Z,38.93
2023-05-04T10:54:01.785Z,37.12
2023-05-04T10:55:01.821Z,36.52
2023-05-04T10:56:01.744Z,35.71
2023-05-04T10:57:01.790Z,35.52
2023-05-04T10:58:01.721Z,36.64
2023-05-04T10:59:01.734Z,37.55
2023-05-04T11:00:01.708Z,36.93
2023-05-04T11:01:01.729Z,37.93
2023-05-04T11:02:01.669Z,36.62
2023-05-04T11:03:01.790Z,35.44
2023-05-04T11:04:01.665Z,35.92
2023-05-04T11:05:01.705Z,36.89
2023-05-04T11:06:01.629Z,36.77
2023-05-04T11:07:01.748Z,36.37
2023-05-04T11:08:01.618Z,36.67
2023-05-04T11:09:01.630Z,36.25
2023-05-04T11:10:01.585Z,36.35
2023-05-04T11:11:01.580Z,36.14
2023-05-04T11:12:01.566Z,35.92
2023-05-04T11:13:04.058Z,36.51
2023-05-04T11:14:01.574Z,38.44
2023-05-04T11:15:01.584Z,38.62
2023-05-04T11:16:01.585Z,38.40
2023-05-04T11:17:02.767Z,37.47
2023-05-04T11:18:01.533Z,36.44
2023-05-04T11:19:01.512Z,35.33
2023-05-04T11:20:01.472Z,35.49
2023-05-04T11:21:01.493Z,35.57
2023-05-04T11:22:01.460Z,35.46
2023-05-04T11:23:01.446Z,36.49
2023-05-04T11:24:01.465Z,37.51
2023-05-04T11:25:01.474Z,37.70
2023-05-04T11:26:01.413Z,36.68
2023-05-04T11:27:01.410Z,35.36
2023-05-04T11:28:01.419Z,35.26
2023-05-04T11:29:01.405Z,34.64
2023-05-04T11:30:01.410Z,34.33
2023-05-04T11:31:01.409Z,35.08
2023-05-04T11:32:01.457Z,36.68
2023-05-04T11:33:01.415Z,36.58
2023-05-04T11:34:01.344Z,37.10
2023-05-04T11:35:01.334Z,38.41
2023-05-04T11:36:01.305Z,37.38
2023-05-04T11:37:01.304Z,36.07
2023-05-04T11:38:01.297Z,35.77
2023-05-04T11:39:01.277Z,37.38
2023-05-04T11:40:01.345Z,37.56
2023-05-04T11:41:01.262Z,36.36
2023-05-04T11:42:01.285Z,35.77
2023-05-04T11:43:01.243Z,36.57
2023-05-04T11:44:01.251Z,35.57
2023-05-04T11:45:01.262Z,35.85
2023-05-04T11:46:01.361Z,35.26
2023-05-04T11:47:01.186Z,36.38
2023-05-04T11:48:01.265Z,37.08
2023-05-04T11:49:01.190Z,37.06
2023-05-04T11:50:01.162Z,36.35
2023-05-04T11:51:01.236Z,35.94
2023-05-04T11:52:01.167Z,35.67
2023-05-04T11:53:01.159Z,35.75
2023-05-04T11:54:01.157Z,36.57
2023-05-04T11:55:01.156Z,38.54
2023-05-04T11:56:01.156Z,38.95
2023-05-04T11:57:01.107Z,38.93
2023-05-04T11:58:01.126Z,38.93
2023-05-04T11:59:01.126Z,38.11
2023-05-04T12:00:01.083Z,37.12
2023-05-04T12:01:01.492Z,36.96
2023-05-04T12:02:01.065Z,36.80
2023-05-04T12:03:01.220Z,36.29
2023-05-04T12:04:01.111Z,36.65
2023-05-04T12:05:01.020Z,35.83
2023-05-04T12:06:01.097Z,35.50
2023-05-04T12:07:01.857Z,34.31
2023-05-04T12:08:02.001Z,35.92
2023-05-04T12:09:00.985Z,36.87
2023-05-04T12:10:00.969Z,37.63
2023-05-04T12:11:01.065Z,38.67
2023-05-04T12:12:00.946Z,38.25
2023-05-04T12:13:00.995Z,38.13
2023-05-04T12:14:00.921Z,39.50
2023-05-04T12:15:00.914Z,42.54
2023-05-04T12:16:00.923Z,40.04
2023-05-04T12:17:00.918Z,40.62
2023-05-04T12:18:02.652Z,39.38
2023-05-04T12:19:01.881Z,38.95
2023-05-04T12:20:00.861Z,39.80
2023-05-04T12:21:01.164Z,40.59
2023-05-04T12:22:00.869Z,39.46
2023-05-04T12:23:00.848Z,38.43
2023-05-04T12:24:00.811Z,37.28
2023-05-04T12:25:00.809Z,37.06
2023-05-04T12:26:00.808Z,37.86
2023-05-04T12:27:00.808Z,36.33
2023-05-04T12:28:00.799Z,36.33
2023-05-04T12:29:00.791Z,35.50
2023-05-04T12:30:00.781Z,34.28
2023-05-04T12:31:00.743Z,33.87
2023-05-04T12:32:00.865Z,34.46
2023-05-04T12:33:00.773Z,34.36
2023-05-04T12:34:00.713Z,33.85
2023-05-04T12:35:00.720Z,34.17
2023-05-04T12:36:00.704Z,34.15
2023-05-04T12:37:00.686Z,33.78
2023-05-04T12:38:00.682Z,34.71
2023-05-04T12:39:00.696Z,34.22
2023-05-04T12:40:00.668Z,34.08
2023-05-04T12:41:00.638Z,33.89
2023-05-04T12:42:00.663Z,34.17
2023-05-04T12:43:00.641Z,34.53
2023-05-04T12:44:00.678Z,36.07
2023-05-04T12:45:00.625Z,36.05
2023-05-04T12:46:00.836Z,34.23
2023-05-04T12:47:00.634Z,34.22
2023-05-04T12:48:00.685Z,35.04
2023-05-04T12:49:00.580Z,37.32
2023-05-04T12:50:00.581Z,38.13
2023-05-04T12:51:00.606Z,37.18
2023-05-04T12:52:00.555Z,35.64